TAF Text Data
IDs:
Format:
Raw Decoded Include METAR

Data at: 1425 UTC 10 Jul 2020

KEET 101140Z 1012/1112 00000KT 5SM BR FEW100
  FM101400 27003KT P6SM FEW100
  FM101600 30008KT P6SM SCT045
  FM110200 32004KT P6SM SKC